createdAt,value
2019-01-31T00:02:36.085Z,-0.30
2019-01-31T00:06:00.778Z,-0.40
2019-01-31T00:08:56.777Z,-0.40
2019-01-31T00:11:55.419Z,-0.40
2019-01-31T00:14:56.419Z,-0.40
2019-01-31T00:17:56.812Z,-0.30
2019-01-31T00:21:11.728Z,-0.40
2019-01-31T00:24:33.885Z,-0.40
2019-01-31T00:27:43.896Z,-0.30
2019-01-31T00:30:53.532Z,-0.30
2019-01-31T00:34:00.148Z,-0.30
2019-01-31T00:36:42.704Z,-0.30
2019-01-31T00:40:07.362Z,-0.30
2019-01-31T00:43:17.682Z,-0.20
2019-01-31T00:46:36.635Z,-0.20
2019-01-31T00:49:36.596Z,-0.20
2019-01-31T00:52:43.004Z,-0.20
2019-01-31T00:55:44.188Z,-0.30
2019-01-31T00:58:42.268Z,-0.30
2019-01-31T01:01:51.172Z,-0.20
2019-01-31T01:04:35.456Z,-0.30
2019-01-31T01:07:43.080Z,-0.30
2019-01-31T01:10:38.432Z,-0.30
2019-01-31T01:13:23.076Z,-0.30
2019-01-31T01:16:19.912Z,-0.40
2019-01-31T01:19:24.908Z,-0.40
2019-01-31T01:22:41.360Z,-0.30
2019-01-31T01:25:45.357Z,-0.30
2019-01-31T01:28:47.161Z,-0.30
2019-01-31T01:31:40.916Z,-0.30
2019-01-31T01:34:47.129Z,-0.30
2019-01-31T01:37:51.900Z,-0.30
2019-01-31T01:40:49.520Z,-0.20
2019-01-31T01:43:33.756Z,-0.30
2019-01-31T01:46:58.308Z,-0.30
2019-01-31T01:50:02.321Z,-0.30
2019-01-31T01:53:00.174Z,-0.30
2019-01-31T01:55:57.884Z,-0.30
2019-01-31T01:59:07.102Z,-0.30
2019-01-31T02:02:05.177Z,-0.30
2019-01-31T02:05:28.002Z,-0.30
2019-01-31T02:08:32.053Z,-0.20
2019-01-31T02:11:42.239Z,-0.20
2019-01-31T02:14:57.449Z,-0.20
2019-01-31T02:17:38.086Z,-0.40
2019-01-31T02:20:51.611Z,-0.50
2019-01-31T02:23:40.556Z,-0.90
2019-01-31T02:27:00.165Z,-0.40
2019-01-31T02:29:47.169Z,-0.30
2019-01-31T02:32:59.135Z,-0.50
2019-01-31T02:36:12.248Z,-0.30
2019-01-31T02:39:43.980Z,-0.40
2019-01-31T02:42:31.574Z,-0.30
2019-01-31T02:45:25.217Z,-0.10
2019-01-31T02:48:19.215Z,-0.10
2019-01-31T02:51:34.423Z,-0.50
2019-01-31T02:54:43.293Z,-0.40
2019-01-31T02:57:51.572Z,-0.40
2019-01-31T03:01:01.869Z,-0.30
2019-01-31T03:04:11.489Z,-0.30
2019-01-31T03:07:20.460Z,-0.40
2019-01-31T03:10:22.218Z,-0.10
2019-01-31T03:13:21.496Z,-0.30
2019-01-31T03:21:42.992Z,-0.40
2019-01-31T03:27:13.816Z,0.40
2019-01-31T03:30:15.057Z,-0.60
2019-01-31T03:33:08.157Z,-0.30
2019-01-31T03:36:17.004Z,-0.60
2019-01-31T03:39:34.509Z,-0.50
2019-01-31T03:42:27.435Z,-0.50
2019-01-31T03:45:16.624Z,-0.50
2019-01-31T03:48:35.709Z,-0.60
2019-01-31T03:51:16.935Z,-0.60
2019-01-31T03:54:13.904Z,-0.70
2019-01-31T03:57:07.668Z,-0.70
2019-01-31T04:00:01.553Z,-0.70
2019-01-31T04:03:04.978Z,-0.80
2019-01-31T04:05:55.119Z,-0.80
2019-01-31T04:08:24.447Z,-0.80
2019-01-31T04:10:53.747Z,-0.90
2019-01-31T04:13:23.272Z,-0.90
2019-01-31T04:15:52.563Z,-1.00
2019-01-31T04:18:21.853Z,-1.00
2019-01-31T04:20:51.330Z,-0.90
2019-01-31T04:25:49.870Z,-1.10
2019-01-31T04:28:19.140Z,-1.10
2019-01-31T04:30:48.490Z,-1.00
2019-01-31T04:33:17.779Z,-1.40
2019-01-31T04:35:47.068Z,-1.30
2019-01-31T04:38:19.636Z,-1.60
2019-01-31T04:40:47.461Z,-1.60
2019-01-31T04:43:16.791Z,-1.40
2019-01-31T04:45:46.076Z,-1.30
2019-01-31T04:48:15.392Z,-1.60
2019-01-31T04:50:44.690Z,-1.50
2019-01-31T04:53:14.015Z,-1.60
2019-01-31T04:55:43.304Z,-1.40
2019-01-31T04:58:12.636Z,-1.60
2019-01-31T05:00:41.979Z,-1.60
2019-01-31T05:03:11.332Z,-1.80
2019-01-31T05:05:40.620Z,-1.70
2019-01-31T05:08:09.909Z,-1.70
2019-01-31T05:10:43.308Z,-1.50
2019-01-31T05:13:10.285Z,-1.80
2019-01-31T05:15:39.573Z,-2.10
2019-01-31T05:18:28.042Z,-1.90
2019-01-31T05:20:57.326Z,-1.80
2019-01-31T05:23:26.617Z,-1.90
2019-01-31T05:25:55.944Z,-2.00
2019-01-31T05:28:25.390Z,-2.00
2019-01-31T05:30:55.284Z,-2.10
2019-01-31T05:33:24.741Z,-2.00
2019-01-31T05:35:54.027Z,-1.80
2019-01-31T05:38:23.439Z,-2.10
2019-01-31T05:40:55.669Z,-1.90
2019-01-31T05:43:23.788Z,-2.30
2019-01-31T05:45:53.086Z,-2.20
2019-01-31T05:48:22.420Z,-2.20
2019-01-31T05:50:51.827Z,-2.30
2019-01-31T05:53:21.117Z,-2.20
2019-01-31T05:55:50.533Z,-2.20
2019-01-31T05:58:20.950Z,-2.10
2019-01-31T06:00:50.348Z,-2.30
2019-01-31T06:05:49.134Z,-2.30
2019-01-31T06:08:18.464Z,-2.50
2019-01-31T06:10:47.755Z,-2.50
2019-01-31T06:13:17.075Z,-2.50
2019-01-31T06:15:46.383Z,-2.40
2019-01-31T06:18:15.716Z,-2.40
2019-01-31T06:20:47.116Z,-2.70
2019-01-31T06:23:16.404Z,-2.50
2019-01-31T06:25:45.745Z,-2.50
2019-01-31T06:28:15.073Z,-2.30
2019-01-31T06:30:44.357Z,-2.50
2019-01-31T06:33:13.685Z,-2.60
2019-01-31T06:35:43.008Z,-2.60
2019-01-31T06:38:12.290Z,-2.50
2019-01-31T06:40:44.216Z,-2.50
2019-01-31T06:43:13.508Z,-2.50
2019-01-31T06:45:42.816Z,-2.50
2019-01-31T06:48:12.112Z,-2.50
2019-01-31T06:50:41.440Z,-2.40
2019-01-31T06:53:12.795Z,-2.40
2019-01-31T06:55:42.092Z,-2.30
2019-01-31T07:00:40.133Z,-2.30
2019-01-31T07:03:09.509Z,-2.00
2019-01-31T07:05:38.829Z,-2.00
2019-01-31T07:08:08.117Z,-1.80
2019-01-31T07:10:37.458Z,-1.90
2019-01-31T07:13:06.745Z,-1.80
2019-01-31T07:15:36.048Z,-1.80
2019-01-31T07:18:05.788Z,-1.70
2019-01-31T07:20:35.179Z,-1.60
2019-01-31T07:23:04.463Z,-1.60
2019-01-31T07:25:33.788Z,-1.30
2019-01-31T07:28:03.087Z,-1.30
2019-01-31T07:30:32.408Z,-1.30
2019-01-31T07:33:01.699Z,-1.30
2019-01-31T07:35:31.023Z,-1.30
2019-01-31T07:40:29.024Z,-1.10
2019-01-31T07:47:56.817Z,-1.10
2019-01-31T07:55:24.154Z,-1.00
2019-01-31T07:57:53.532Z,-1.20
2019-01-31T08:00:23.444Z,-1.10
2019-01-31T08:02:52.822Z,-1.10
2019-01-31T08:05:22.998Z,-1.10
2019-01-31T08:07:54.867Z,-1.20
2019-01-31T08:10:29.942Z,-1.10
2019-01-31T08:12:59.361Z,-1.10
2019-01-31T08:15:29.288Z,-1.10
2019-01-31T08:17:58.584Z,-1.20
2019-01-31T08:20:27.901Z,-1.20
2019-01-31T08:23:00.121Z,-1.30
2019-01-31T08:25:28.393Z,-1.30
2019-01-31T08:27:57.793Z,-1.30
2019-01-31T08:30:30.064Z,-1.00
2019-01-31T08:32:59.759Z,-1.40
2019-01-31T08:35:29.091Z,-1.20
2019-01-31T08:37:58.430Z,-1.00
2019-01-31T08:40:27.781Z,-1.20
2019-01-31T08:42:57.108Z,-1.20
2019-01-31T08:45:26.444Z,-1.60
2019-01-31T08:47:55.725Z,-1.30
2019-01-31T08:50:27.673Z,-1.30
2019-01-31T08:55:25.940Z,-1.10
2019-01-31T08:57:55.266Z,-1.10
2019-01-31T09:00:30.000Z,-0.90
2019-01-31T09:02:59.341Z,-1.00
2019-01-31T09:05:29.148Z,-1.00
2019-01-31T09:07:58.488Z,-0.90
2019-01-31T09:10:30.200Z,-1.10
2019-01-31T09:13:00.927Z,-1.10
2019-01-31T09:15:30.267Z,-1.00
2019-01-31T09:17:59.679Z,-0.90
2019-01-31T09:21:08.410Z,-1.00
2019-01-31T09:24:07.323Z,-0.80
2019-01-31T09:27:16.401Z,-0.70
2019-01-31T09:30:04.058Z,-0.70
2019-01-31T09:33:03.451Z,-0.50
2019-01-31T09:36:03.576Z,-0.60
2019-01-31T09:38:59.716Z,-0.60
2019-01-31T09:41:41.264Z,-0.60
2019-01-31T09:44:23.608Z,-0.60
2019-01-31T09:50:05.034Z,-0.40
2019-01-31T10:12:37.890Z,-0.10
2019-01-31T10:15:11.828Z,-0.10
2019-01-31T10:18:10.150Z,-0.20
2019-01-31T10:24:17.043Z,-0.10
2019-01-31T10:29:53.007Z,0.00
2019-01-31T10:32:57.796Z,0.00
2019-01-31T10:41:41.628Z,0.30
2019-01-31T10:45:21.776Z,0.30
2019-01-31T10:48:37.468Z,0.30
2019-01-31T10:51:37.732Z,0.40
2019-01-31T10:54:54.492Z,0.30
2019-01-31T11:01:00.185Z,0.60
2019-01-31T11:04:17.784Z,0.50
2019-01-31T11:07:08.216Z,0.60
2019-01-31T11:13:14.555Z,0.70
2019-01-31T11:24:34.102Z,1.10
2019-01-31T11:27:59.640Z,0.90
2019-01-31T11:33:32.023Z,1.10
2019-01-31T11:39:35.692Z,1.20
2019-01-31T11:42:20.905Z,1.70
2019-01-31T11:45:36.303Z,1.40
2019-01-31T11:51:15.323Z,1.90
2019-01-31T11:54:13.061Z,1.90
2019-01-31T11:57:07.976Z,2.60
2019-01-31T11:59:37.304Z,3.00
2019-01-31T12:02:07.528Z,3.30
2019-01-31T12:04:36.878Z,3.90
2019-01-31T12:09:34.856Z,4.90
2019-01-31T12:12:04.137Z,4.60
2019-01-31T12:14:33.454Z,4.70
2019-01-31T12:17:02.777Z,4.30
2019-01-31T12:19:32.126Z,4.10
2019-01-31T12:22:01.857Z,3.90
2019-01-31T12:24:31.235Z,3.60
2019-01-31T12:27:00.591Z,3.50
2019-01-31T12:29:29.875Z,3.40
2019-01-31T12:31:59.184Z,3.30
2019-01-31T12:34:28.906Z,3.50
2019-01-31T12:36:58.229Z,3.70
2019-01-31T12:39:27.958Z,3.80
2019-01-31T12:41:57.236Z,4.30
2019-01-31T12:44:26.560Z,4.10
2019-01-31T12:46:55.872Z,4.10
2019-01-31T12:49:25.157Z,4.60
2019-01-31T12:51:54.483Z,4.50
2019-01-31T12:54:23.757Z,4.20
2019-01-31T12:56:53.149Z,4.30
2019-01-31T13:01:51.212Z,4.30
2019-01-31T13:04:20.752Z,4.30
2019-01-31T13:06:50.674Z,4.40
2019-01-31T13:09:20.016Z,4.40
2019-01-31T13:11:49.353Z,4.30
2019-01-31T13:16:47.416Z,4.40
2019-01-31T13:19:16.766Z,4.00
2019-01-31T13:21:46.092Z,4.40
2019-01-31T13:24:15.475Z,3.90
2019-01-31T13:26:44.792Z,4.30
2019-01-31T13:34:11.575Z,3.60
2019-01-31T13:36:40.868Z,3.30
2019-01-31T13:39:14.793Z,4.00
2019-01-31T13:41:44.094Z,3.20
2019-01-31T13:46:42.525Z,3.00
2019-01-31T13:49:11.804Z,2.90
2019-01-31T13:54:10.280Z,2.90
2019-01-31T13:56:45.609Z,2.90
2019-01-31T13:59:11.697Z,2.90
2019-01-31T14:06:38.463Z,2.70
2019-01-31T14:09:10.072Z,2.50
2019-01-31T14:11:39.364Z,2.50
2019-01-31T14:14:09.534Z,2.20
2019-01-31T14:16:47.279Z,2.30
2019-01-31T14:19:10.556Z,2.20
2019-01-31T14:21:39.883Z,2.00
2019-01-31T14:24:09.216Z,1.90
2019-01-31T14:26:38.586Z,1.80
2019-01-31T14:29:07.878Z,1.80
2019-01-31T14:31:38.228Z,1.80
2019-01-31T14:34:09.142Z,1.70
2019-01-31T14:36:38.581Z,1.70
2019-01-31T14:39:09.827Z,1.60
2019-01-31T14:41:39.165Z,1.60
2019-01-31T14:44:19.891Z,1.60
2019-01-31T14:46:39.865Z,1.50
2019-01-31T14:49:09.222Z,1.50
2019-01-31T14:51:38.536Z,1.50
2019-01-31T14:54:07.842Z,1.40
2019-01-31T14:56:37.228Z,1.40
2019-01-31T14:59:06.528Z,1.30
2019-01-31T15:01:35.840Z,1.30
2019-01-31T15:04:05.268Z,1.20
2019-01-31T15:06:34.611Z,1.20
2019-01-31T15:09:05.372Z,1.30
2019-01-31T15:11:34.708Z,1.20
2019-01-31T15:14:04.190Z,1.20
2019-01-31T15:16:33.558Z,1.20
2019-01-31T15:19:03.003Z,1.20
2019-01-31T15:21:32.404Z,1.10
2019-01-31T15:24:01.762Z,1.10
2019-01-31T15:26:31.192Z,1.10
2019-01-31T15:29:00.507Z,1.00
2019-01-31T15:31:29.840Z,1.00
2019-01-31T15:33:59.141Z,1.00
2019-01-31T15:36:28.534Z,1.00
2019-01-31T15:38:57.919Z,0.90
2019-01-31T15:41:27.264Z,0.90
2019-01-31T15:43:56.596Z,0.90
2019-01-31T15:46:25.885Z,0.90
2019-01-31T15:48:55.224Z,0.90
2019-01-31T15:51:24.512Z,0.80
2019-01-31T15:53:53.833Z,0.80
2019-01-31T15:56:23.133Z,0.80
2019-01-31T15:58:52.447Z,0.50
2019-01-31T16:01:21.768Z,0.80
2019-01-31T16:03:51.115Z,0.80
2019-01-31T16:06:20.480Z,0.80
2019-01-31T16:08:49.777Z,0.70
2019-01-31T16:11:19.133Z,0.80
2019-01-31T16:13:48.519Z,0.80
2019-01-31T16:18:48.313Z,0.70
2019-01-31T16:21:17.885Z,0.70
2019-01-31T16:23:47.250Z,0.70
2019-01-31T16:26:16.596Z,0.70
2019-01-31T16:28:45.940Z,0.70
2019-01-31T16:31:15.288Z,0.70
2019-01-31T16:33:44.572Z,0.70
2019-01-31T16:36:13.860Z,0.70
2019-01-31T16:38:43.211Z,0.70
2019-01-31T16:41:12.497Z,0.70
2019-01-31T16:43:41.793Z,0.70
2019-01-31T16:46:11.072Z,0.70
2019-01-31T16:48:40.401Z,0.70
2019-01-31T16:51:09.676Z,0.70
2019-01-31T16:53:39.599Z,0.70
2019-01-31T16:56:08.921Z,0.70
2019-01-31T16:58:38.316Z,0.70
2019-01-31T17:01:07.794Z,0.70
2019-01-31T17:03:37.176Z,0.70
2019-01-31T17:06:06.470Z,0.80
2019-01-31T17:08:35.801Z,0.80
2019-01-31T17:11:05.518Z,0.80
2019-01-31T17:13:34.848Z,0.80
2019-01-31T17:16:05.912Z,0.80
2019-01-31T17:18:35.253Z,0.80
2019-01-31T17:21:04.581Z,0.80
2019-01-31T17:23:34.576Z,0.90
2019-01-31T17:26:03.896Z,0.90
2019-01-31T17:28:33.208Z,0.90
2019-01-31T17:31:02.534Z,0.90
2019-01-31T17:33:31.920Z,0.90
2019-01-31T17:36:01.272Z,1.00
2019-01-31T17:38:33.119Z,1.00
2019-01-31T17:41:01.646Z,1.00
2019-01-31T17:43:30.952Z,1.00
2019-01-31T17:46:00.872Z,1.00
2019-01-31T17:48:30.150Z,1.10
2019-01-31T17:50:59.424Z,1.00
2019-01-31T17:53:28.751Z,1.20
2019-01-31T17:55:58.064Z,1.00
2019-01-31T17:58:27.361Z,1.10
2019-01-31T18:00:58.398Z,1.00
2019-01-31T18:03:28.198Z,1.00
2019-01-31T18:05:58.105Z,1.00
2019-01-31T18:08:27.508Z,0.90
2019-01-31T18:10:56.848Z,0.90
2019-01-31T18:13:26.169Z,0.90
2019-01-31T18:15:55.493Z,0.90
2019-01-31T18:18:24.793Z,0.80
2019-01-31T18:20:54.126Z,0.80
2019-01-31T18:25:52.248Z,0.80
2019-01-31T18:28:21.604Z,0.80
2019-01-31T18:30:50.932Z,0.80
2019-01-31T18:33:20.279Z,0.70
2019-01-31T18:35:50.356Z,0.70
2019-01-31T18:38:19.630Z,0.70
2019-01-31T18:40:48.907Z,0.70
2019-01-31T18:43:19.725Z,0.70
2019-01-31T18:45:53.481Z,0.70
2019-01-31T18:48:20.077Z,0.70
2019-01-31T18:50:49.368Z,0.60
2019-01-31T18:53:18.688Z,0.60
2019-01-31T18:55:48.007Z,0.60
2019-01-31T18:58:17.293Z,0.60
2019-01-31T19:00:48.900Z,0.60
2019-01-31T19:03:19.088Z,0.60
2019-01-31T19:08:17.992Z,0.50
2019-01-31T19:10:47.415Z,0.50
2019-01-31T19:13:16.792Z,0.50
2019-01-31T19:15:46.508Z,0.60
2019-01-31T19:18:16.416Z,0.60
2019-01-31T19:20:45.972Z,0.60
2019-01-31T19:23:15.268Z,0.60
2019-01-31T19:25:47.181Z,0.60
2019-01-31T19:28:15.680Z,0.60
2019-01-31T19:30:45.002Z,0.60
2019-01-31T19:33:14.338Z,0.50
2019-01-31T19:35:43.611Z,0.50
2019-01-31T19:38:12.896Z,0.50
2019-01-31T19:40:44.473Z,0.40
2019-01-31T19:43:13.821Z,0.40
2019-01-31T19:45:48.692Z,0.40
2019-01-31T19:48:17.976Z,0.40
2019-01-31T19:50:47.257Z,0.30
2019-01-31T19:53:16.615Z,0.30
2019-01-31T19:55:45.885Z,0.20
2019-01-31T19:58:15.555Z,0.10
2019-01-31T20:00:45.188Z,0.00
2019-01-31T20:03:14.780Z,0.00
2019-01-31T20:05:44.048Z,0.00
2019-01-31T20:08:14.467Z,-0.10
2019-01-31T20:10:44.169Z,-0.10
2019-01-31T20:13:13.488Z,-0.10
2019-01-31T20:15:43.596Z,-0.10
2019-01-31T20:18:13.446Z,-0.10
2019-01-31T20:20:43.025Z,-0.20
2019-01-31T20:23:12.940Z,-0.20
2019-01-31T20:25:42.724Z,-0.20
2019-01-31T20:28:12.425Z,-0.30
2019-01-31T20:30:42.236Z,-0.30
2019-01-31T20:33:11.834Z,-0.40
2019-01-31T20:35:41.296Z,-0.40
2019-01-31T20:38:10.583Z,-0.40
2019-01-31T20:40:42.719Z,-0.50
2019-01-31T20:43:12.098Z,-0.60
2019-01-31T20:45:41.677Z,-0.60
2019-01-31T20:48:11.489Z,-0.60
2019-01-31T20:50:44.218Z,-0.70
2019-01-31T20:53:13.591Z,-0.70
2019-01-31T20:55:43.084Z,-0.70
2019-01-31T20:58:12.376Z,-0.80
2019-01-31T21:00:46.660Z,-0.80
2019-01-31T21:03:16.019Z,-0.80
2019-01-31T21:05:46.257Z,-0.90
2019-01-31T21:08:16.264Z,-0.90
2019-01-31T21:10:45.749Z,-1.00
2019-01-31T21:13:15.705Z,-1.00
2019-01-31T21:15:45.034Z,-1.00
2019-01-31T21:18:14.820Z,-1.00
2019-01-31T21:20:46.925Z,-1.00
2019-01-31T21:23:16.257Z,-1.00
2019-01-31T21:25:45.561Z,-1.00
2019-01-31T21:28:14.931Z,-1.10
2019-01-31T21:30:44.304Z,-1.10
2019-01-31T21:33:13.608Z,-1.20
2019-01-31T21:35:42.901Z,-1.20
2019-01-31T21:38:12.212Z,-1.20
2019-01-31T21:40:41.492Z,-1.20
2019-01-31T21:43:11.207Z,-1.30
2019-01-31T21:45:40.551Z,-1.30
2019-01-31T21:48:11.250Z,-1.40
2019-01-31T21:50:40.662Z,-1.40
2019-01-31T21:53:10.669Z,-1.40
2019-01-31T21:55:40.040Z,-1.40
2019-01-31T21:58:09.340Z,-1.40
2019-01-31T22:00:38.669Z,-1.50
2019-01-31T22:03:09.504Z,-1.50
2019-01-31T22:05:38.836Z,-1.50
2019-01-31T22:08:08.122Z,-1.50
2019-01-31T22:10:37.497Z,-1.50
2019-01-31T22:13:07.214Z,-1.50
2019-01-31T22:15:37.452Z,-1.50
2019-01-31T22:18:07.667Z,-1.60
2019-01-31T22:20:37.021Z,-1.60
2019-01-31T22:23:07.200Z,-1.70
2019-01-31T22:25:36.487Z,-1.70
2019-01-31T22:28:06.618Z,-1.70
2019-01-31T22:30:38.144Z,-1.80
2019-01-31T22:33:08.928Z,-1.80
2019-01-31T22:35:38.260Z,-1.80
2019-01-31T22:38:08.008Z,-1.90
2019-01-31T22:40:37.295Z,-1.90
2019-01-31T22:43:06.812Z,-1.90
2019-01-31T22:45:36.149Z,-1.90
2019-01-31T22:50:34.852Z,-2.00
2019-01-31T22:53:04.581Z,-2.00
2019-01-31T22:55:33.868Z,-2.20
2019-01-31T22:58:03.201Z,-2.10
2019-01-31T23:01:21.923Z,-2.10
2019-01-31T23:03:51.887Z,-2.10
2019-01-31T23:06:21.236Z,-2.10
2019-01-31T23:08:50.528Z,-2.10
2019-01-31T23:11:19.873Z,-2.10
2019-01-31T23:16:18.226Z,-2.10
2019-01-31T23:21:16.892Z,-2.20
2019-01-31T23:23:46.216Z,-2.30
2019-01-31T23:28:44.277Z,-2.30
2019-01-31T23:31:13.607Z,-2.30
2019-01-31T23:33:42.893Z,-2.40
2019-01-31T23:36:12.181Z,-2.40
2019-01-31T23:41:10.216Z,-2.30
2019-01-31T23:43:39.655Z,-2.30
2019-01-31T23:46:09.538Z,-2.30
2019-01-31T23:53:36.288Z,-2.20
2019-01-31T23:56:06.352Z,-2.10
2019-01-31T23:58:35.678Z,-2.20
